createdAt,value
2023-05-19T00:00:34.558Z,10.21
2023-05-19T00:03:03.337Z,10.19
2023-05-19T00:05:31.737Z,10.18
2023-05-19T00:08:00.960Z,10.14
2023-05-19T00:10:31.629Z,10.12
2023-05-19T00:13:00.484Z,10.09
2023-05-19T00:15:30.382Z,10.06
2023-05-19T00:17:58.955Z,10.03
2023-05-19T00:20:27.060Z,10.00
2023-05-19T00:22:55.098Z,9.99
2023-05-19T00:25:26.007Z,10.00
2023-05-19T00:27:54.023Z,9.98
2023-05-19T00:30:22.913Z,9.99
2023-05-19T00:32:52.584Z,9.98
2023-05-19T00:35:21.720Z,10.00
2023-05-19T00:37:49.500Z,10.02
2023-05-19T00:40:17.652Z,10.03
2023-05-19T00:42:46.599Z,10.01
2023-05-19T00:45:14.393Z,10.00
2023-05-19T00:47:42.273Z,9.96
2023-05-19T00:50:11.950Z,9.93
2023-05-19T00:52:39.769Z,9.90
2023-05-19T00:55:11.120Z,9.88
2023-05-19T00:57:39.184Z,9.82
2023-05-19T01:00:11.228Z,9.78
2023-05-19T01:02:40.036Z,9.74
2023-05-19T01:05:08.690Z,9.70
2023-05-19T01:07:38.357Z,9.68
2023-05-19T01:10:06.902Z,9.67
2023-05-19T01:12:34.813Z,9.68
2023-05-19T01:15:03.436Z,9.69
2023-05-19T01:17:36.766Z,9.69
2023-05-19T01:20:11.057Z,9.69
2023-05-19T01:22:59.006Z,9.67
2023-05-19T01:25:52.870Z,9.65
2023-05-19T01:28:44.727Z,9.64
2023-05-19T01:31:14.222Z,9.62
2023-05-19T01:33:42.984Z,9.59
2023-05-19T01:36:12.941Z,9.57
2023-05-19T01:38:41.333Z,9.57
2023-05-19T01:41:09.566Z,9.56
2023-05-19T01:43:37.641Z,9.55
2023-05-19T01:46:06.404Z,9.57
2023-05-19T01:48:39.868Z,9.55
2023-05-19T01:51:07.618Z,9.54
2023-05-19T01:53:36.111Z,9.51
2023-05-19T01:56:07.677Z,9.49
2023-05-19T01:58:42.052Z,9.46
2023-05-19T02:01:12.588Z,9.42
2023-05-19T02:04:05.031Z,9.35
2023-05-19T02:06:40.179Z,9.34
2023-05-19T02:09:11.421Z,9.30
2023-05-19T02:11:46.330Z,9.25
2023-05-19T02:14:17.297Z,9.20
2023-05-19T02:16:46.794Z,9.18
2023-05-19T02:19:27.181Z,9.15
2023-05-19T02:21:55.041Z,9.15
2023-05-19T02:24:25.799Z,9.15
2023-05-19T02:26:54.485Z,9.13
2023-05-19T02:29:22.466Z,9.11
2023-05-19T02:31:50.403Z,9.07
2023-05-19T02:34:18.231Z,8.99
2023-05-19T02:36:49.746Z,8.96
2023-05-19T02:39:17.629Z,8.88
2023-05-19T02:41:45.503Z,8.79
2023-05-19T02:44:13.264Z,8.69
2023-05-19T02:46:41.146Z,8.62
2023-05-19T02:49:08.935Z,8.56
2023-05-19T02:51:36.714Z,8.52
2023-05-19T02:54:07.338Z,8.45
2023-05-19T02:56:35.099Z,8.41
2023-05-19T02:59:02.878Z,8.39
2023-05-19T03:01:32.739Z,8.34
2023-05-19T03:04:00.654Z,8.32
2023-05-19T03:06:29.465Z,8.28
2023-05-19T03:08:57.240Z,8.24
2023-05-19T03:11:26.443Z,8.21
2023-05-19T03:13:57.315Z,8.15
2023-05-19T03:16:25.221Z,8.13
2023-05-19T03:18:53.058Z,8.11
2023-05-19T03:21:21.432Z,8.08
2023-05-19T03:23:49.198Z,8.07
2023-05-19T03:26:16.922Z,8.05
2023-05-19T03:28:46.092Z,8.06
2023-05-19T03:31:16.658Z,8.06
2023-05-19T03:33:44.455Z,8.05
2023-05-19T03:36:12.671Z,8.04
2023-05-19T03:38:40.436Z,8.02
2023-05-19T03:41:08.185Z,8.04
2023-05-19T03:43:36.014Z,8.05
2023-05-19T03:46:05.220Z,8.08
2023-05-19T03:48:33.002Z,8.09
2023-05-19T03:51:01.476Z,8.15
2023-05-19T03:53:30.500Z,8.16
2023-05-19T03:55:59.418Z,8.19
2023-05-19T03:58:27.194Z,8.21
2023-05-19T04:00:55.389Z,8.22
2023-05-19T04:03:26.113Z,8.24
2023-05-19T04:05:54.181Z,8.26
2023-05-19T04:08:22.058Z,8.26
2023-05-19T04:10:49.802Z,8.27
2023-05-19T04:13:17.512Z,8.29
2023-05-19T04:15:46.098Z,8.34
2023-05-19T04:18:14.567Z,8.39
2023-05-19T04:20:43.688Z,8.45
2023-05-19T04:23:11.535Z,8.55
2023-05-19T04:25:40.828Z,8.62
2023-05-19T04:28:08.445Z,8.66
2023-05-19T04:30:37.022Z,8.77
2023-05-19T04:33:05.359Z,8.83
2023-05-19T04:35:33.249Z,8.93
2023-05-19T04:38:02.824Z,9.00
2023-05-19T04:40:31.297Z,9.07
2023-05-19T04:43:02.086Z,9.12
2023-05-19T04:45:30.139Z,9.19
2023-05-19T04:47:58.656Z,9.21
2023-05-19T04:50:26.484Z,9.28
2023-05-19T04:52:54.275Z,9.35
2023-05-19T04:55:23.507Z,9.46
2023-05-19T04:57:51.126Z,9.46
2023-05-19T05:00:20.574Z,9.56
2023-05-19T05:02:49.028Z,9.62
2023-05-19T05:05:17.040Z,9.67
2023-05-19T05:07:44.868Z,9.80
2023-05-19T05:10:12.730Z,9.87
2023-05-19T05:12:42.906Z,9.97
2023-05-19T05:15:12.094Z,10.10
2023-05-19T05:17:40.013Z,10.17
2023-05-19T05:20:08.978Z,10.39
2023-05-19T05:22:38.669Z,10.49
2023-05-19T05:25:07.715Z,10.60
2023-05-19T05:27:35.860Z,10.73
2023-05-19T05:30:05.733Z,10.88
2023-05-19T05:32:33.654Z,11.01
2023-05-19T05:35:01.514Z,11.11
2023-05-19T05:37:29.355Z,11.25
2023-05-19T05:39:57.124Z,11.38
2023-05-19T05:42:25.310Z,11.45
2023-05-19T05:44:54.223Z,11.56
2023-05-19T05:47:23.867Z,11.64
2023-05-19T05:49:53.551Z,11.80
2023-05-19T05:52:22.977Z,11.88
2023-05-19T05:54:50.825Z,11.87
2023-05-19T05:57:19.179Z,12.05
2023-05-19T05:59:47.232Z,12.17
2023-05-19T06:02:15.062Z,12.28
2023-05-19T06:04:45.110Z,12.36
2023-05-19T06:07:12.920Z,12.44
2023-05-19T06:09:40.820Z,12.54
2023-05-19T06:12:09.188Z,12.64
2023-05-19T06:14:36.967Z,12.72
2023-05-19T06:17:05.119Z,12.83
2023-05-19T06:19:33.278Z,12.85
2023-05-19T06:22:02.391Z,12.96
2023-05-19T06:24:29.978Z,13.03
2023-05-19T06:26:57.715Z,13.24
2023-05-19T06:29:25.538Z,13.32
2023-05-19T06:31:53.398Z,13.40
2023-05-19T06:34:21.317Z,13.53
2023-05-19T06:36:49.099Z,13.69
2023-05-19T06:39:18.252Z,13.83
2023-05-19T06:41:45.831Z,13.94
2023-05-19T06:44:13.616Z,14.14
2023-05-19T06:46:41.508Z,14.30
2023-05-19T06:49:09.303Z,14.37
2023-05-19T06:51:38.897Z,14.46
2023-05-19T06:54:06.745Z,14.55
2023-05-19T06:56:36.508Z,14.63
2023-05-19T06:59:04.429Z,14.69
2023-05-19T07:01:32.244Z,14.77
2023-05-19T07:04:00.184Z,14.92
2023-05-19T07:06:28.228Z,15.06
2023-05-19T07:08:56.056Z,15.23
2023-05-19T07:11:24.304Z,15.34
2023-05-19T07:13:53.939Z,15.42
2023-05-19T07:16:21.722Z,15.52
2023-05-19T07:18:49.500Z,15.60
2023-05-19T07:21:17.287Z,15.61
2023-05-19T07:23:45.122Z,15.74
2023-05-19T07:26:12.923Z,15.85
2023-05-19T07:28:42.550Z,15.98
2023-05-19T07:31:11.987Z,16.10
2023-05-19T07:33:39.814Z,16.18
2023-05-19T07:36:07.732Z,16.17
2023-05-19T07:38:35.765Z,16.23
2023-05-19T07:41:04.154Z,16.22
2023-05-19T07:43:31.970Z,16.29
2023-05-19T07:45:59.859Z,16.50
2023-05-19T07:48:29.586Z,18.49
2023-05-19T07:50:57.364Z,20.87
2023-05-19T07:53:25.152Z,22.23
2023-05-19T07:55:52.979Z,22.93
2023-05-19T07:58:20.742Z,23.86
2023-05-19T08:00:48.512Z,24.44
2023-05-19T08:03:18.489Z,24.80
2023-05-19T08:05:47.763Z,25.11
2023-05-19T08:08:16.967Z,25.20
2023-05-19T08:10:45.020Z,24.67
2023-05-19T08:13:12.805Z,24.54
2023-05-19T08:15:41.270Z,24.53
2023-05-19T08:18:09.244Z,24.77
2023-05-19T08:20:37.582Z,24.79
2023-05-19T08:23:06.719Z,24.60
2023-05-19T08:25:34.520Z,24.40
2023-05-19T08:28:02.322Z,24.52
2023-05-19T08:30:30.169Z,24.39
2023-05-19T08:32:58.215Z,24.40
2023-05-19T08:35:26.226Z,24.48
2023-05-19T08:37:54.052Z,24.40
2023-05-19T08:40:24.186Z,24.13
2023-05-19T08:42:51.943Z,24.03
2023-05-19T08:45:20.303Z,23.49
2023-05-19T08:47:48.092Z,22.65
2023-05-19T08:50:21.281Z,22.96
2023-05-19T08:52:53.462Z,22.68
2023-05-19T08:55:31.070Z,22.49
2023-05-19T08:57:59.224Z,22.37
2023-05-19T09:00:27.414Z,22.23
2023-05-19T09:03:01.205Z,22.24
2023-05-19T09:05:40.122Z,22.43
2023-05-19T09:08:08.205Z,22.69
2023-05-19T09:10:37.607Z,22.68
2023-05-19T09:13:06.614Z,22.16
2023-05-19T09:15:37.014Z,22.04
2023-05-19T09:18:08.626Z,21.84
2023-05-19T09:20:39.541Z,21.88
2023-05-19T09:23:07.814Z,22.04
2023-05-19T09:25:37.343Z,21.86
2023-05-19T09:28:05.343Z,21.87
2023-05-19T09:30:37.676Z,21.84
2023-05-19T09:33:13.363Z,21.96
2023-05-19T09:35:42.108Z,21.94
2023-05-19T09:38:09.726Z,21.65
2023-05-19T09:40:38.872Z,21.60
2023-05-19T09:43:09.180Z,21.75
2023-05-19T09:45:37.188Z,21.51
2023-05-19T09:48:05.723Z,21.42
2023-05-19T09:50:34.164Z,21.23
2023-05-19T09:53:04.152Z,21.21
2023-05-19T09:55:33.153Z,21.30
2023-05-19T09:58:04.894Z,21.28
2023-05-19T10:00:34.037Z,21.43
2023-05-19T10:03:02.821Z,21.73
2023-05-19T10:05:31.035Z,21.79
2023-05-19T10:07:58.975Z,21.82
2023-05-19T10:10:27.718Z,21.35
2023-05-19T10:12:55.445Z,21.22
2023-05-19T10:15:25.144Z,21.35
2023-05-19T10:17:53.700Z,21.46
2023-05-19T10:20:21.669Z,21.39
2023-05-19T10:22:49.666Z,20.89
2023-05-19T10:25:20.006Z,20.67
2023-05-19T10:27:58.076Z,20.90
2023-05-19T10:30:32.904Z,21.39
2023-05-19T10:33:01.752Z,21.48
2023-05-19T10:35:41.621Z,21.73
2023-05-19T10:38:16.388Z,21.81
2023-05-19T10:40:54.660Z,21.80
2023-05-19T10:43:27.133Z,21.94
2023-05-19T10:46:00.729Z,22.19
2023-05-19T10:48:28.530Z,22.24
2023-05-19T10:50:57.860Z,21.89
2023-05-19T10:53:32.191Z,21.29
2023-05-19T10:56:04.165Z,21.15
2023-05-19T10:58:40.149Z,21.15
2023-05-19T11:01:14.999Z,20.72
2023-05-19T11:03:48.033Z,20.61
2023-05-19T11:06:26.501Z,20.87
2023-05-19T11:08:55.980Z,21.08
2023-05-19T11:11:24.162Z,21.18
2023-05-19T11:13:52.620Z,21.30
2023-05-19T11:16:28.273Z,21.45
2023-05-19T11:18:56.824Z,21.40
2023-05-19T11:21:24.829Z,21.39
2023-05-19T11:23:53.763Z,21.45
2023-05-19T11:26:43.227Z,21.27
2023-05-19T11:29:11.601Z,21.39
2023-05-19T11:31:44.795Z,21.51
2023-05-19T11:34:15.323Z,21.85
2023-05-19T11:36:44.088Z,21.87
2023-05-19T11:39:11.792Z,21.55
2023-05-19T11:41:40.818Z,21.65
2023-05-19T11:44:11.559Z,21.88
2023-05-19T11:46:39.441Z,22.13
2023-05-19T11:49:08.671Z,22.07
2023-05-19T11:51:38.340Z,21.99
2023-05-19T11:54:06.526Z,21.85
2023-05-19T11:56:35.690Z,21.85
2023-05-19T11:59:03.596Z,21.88
2023-05-19T12:01:32.023Z,21.84
2023-05-19T12:03:59.947Z,21.78
2023-05-19T12:06:29.283Z,21.49
2023-05-19T12:08:57.151Z,21.44
2023-05-19T12:11:25.139Z,21.41
2023-05-19T12:13:54.650Z,21.44
2023-05-19T12:16:22.937Z,21.58
2023-05-19T12:18:50.878Z,21.62
2023-05-19T12:21:18.874Z,21.67
2023-05-19T12:23:51.511Z,21.66
2023-05-19T12:26:20.156Z,21.78
2023-05-19T12:28:47.924Z,21.73
2023-05-19T12:31:15.814Z,21.62
2023-05-19T12:33:43.666Z,21.72
2023-05-19T12:36:13.394Z,21.75
2023-05-19T12:38:42.386Z,21.88
2023-05-19T12:41:13.617Z,22.04
2023-05-19T12:43:42.397Z,22.08
2023-05-19T12:46:13.116Z,21.95
2023-05-19T12:48:44.613Z,22.18
2023-05-19T12:51:13.193Z,22.44
2023-05-19T12:53:41.059Z,22.78
2023-05-19T12:56:14.987Z,22.84
2023-05-19T12:58:43.231Z,22.88
2023-05-19T13:01:17.528Z,22.69
2023-05-19T13:03:46.023Z,22.74
2023-05-19T13:06:14.040Z,22.58
2023-05-19T13:08:47.928Z,22.37
2023-05-19T13:11:17.184Z,22.26
2023-05-19T13:13:45.430Z,22.32
2023-05-19T13:16:13.564Z,22.30
2023-05-19T13:18:41.426Z,22.49
2023-05-19T13:21:09.257Z,22.64
2023-05-19T13:23:37.713Z,22.69
2023-05-19T13:26:07.798Z,22.90
2023-05-19T13:28:37.037Z,23.08
2023-05-19T13:31:04.913Z,23.22
2023-05-19T13:33:33.328Z,23.22
2023-05-19T13:36:01.394Z,23.15
2023-05-19T13:38:30.398Z,23.09
2023-05-19T13:40:58.234Z,23.18
2023-05-19T13:43:25.982Z,23.26
2023-05-19T13:45:55.133Z,23.38
2023-05-19T13:48:22.972Z,23.45
2023-05-19T13:50:52.547Z,23.22
2023-05-19T13:53:20.304Z,23.07
2023-05-19T13:55:48.266Z,23.19
2023-05-19T13:58:17.023Z,23.49
2023-05-19T14:03:16.121Z,23.48
2023-05-19T14:05:44.231Z,23.60
2023-05-19T14:08:12.290Z,23.32
2023-05-19T14:10:40.103Z,23.08
2023-05-19T14:15:41.231Z,22.82
2023-05-19T14:18:09.066Z,22.69
2023-05-19T14:20:38.284Z,22.59
2023-05-19T14:23:06.138Z,22.60
2023-05-19T14:25:33.964Z,22.27
2023-05-19T14:28:02.438Z,22.04
2023-05-19T14:30:30.220Z,22.17
2023-05-19T14:33:01.232Z,22.27
2023-05-19T14:35:29.144Z,22.57
2023-05-19T14:37:58.244Z,22.70
2023-05-19T14:40:29.246Z,22.91
2023-05-19T14:42:58.334Z,22.97
2023-05-19T14:45:30.816Z,23.04
2023-05-19T14:48:00.768Z,23.44
2023-05-19T14:50:29.333Z,23.83
2023-05-19T14:52:58.935Z,24.10
2023-05-19T14:55:26.886Z,24.39
2023-05-19T14:57:54.698Z,24.06
2023-05-19T15:00:22.535Z,23.54
2023-05-19T15:02:50.489Z,23.11
2023-05-19T15:05:18.328Z,23.08
2023-05-19T15:07:46.411Z,22.92
2023-05-19T15:10:16.452Z,22.70
2023-05-19T15:12:44.455Z,22.55
2023-05-19T15:15:12.731Z,22.38
2023-05-19T15:17:41.070Z,22.28
2023-05-19T15:20:09.679Z,22.02
2023-05-19T15:22:37.520Z,21.72
2023-05-19T15:25:05.840Z,21.62
2023-05-19T15:27:35.559Z,21.61
2023-05-19T15:30:03.410Z,21.75
2023-05-19T15:32:31.345Z,21.86
2023-05-19T15:34:59.417Z,21.88
2023-05-19T15:37:31.589Z,21.82
2023-05-19T15:39:59.395Z,21.86
2023-05-19T15:42:27.298Z,21.66
2023-05-19T15:44:56.429Z,21.42
2023-05-19T15:47:24.344Z,21.38
2023-05-19T15:49:52.175Z,21.28
2023-05-19T15:52:19.903Z,21.33
2023-05-19T15:54:48.673Z,21.36
2023-05-19T15:57:16.467Z,21.42
2023-05-19T15:59:44.187Z,21.45
2023-05-19T16:02:13.355Z,21.46
2023-05-19T16:04:41.149Z,21.38
2023-05-19T16:07:08.920Z,21.37
2023-05-19T16:09:36.732Z,21.20
2023-05-19T16:12:04.933Z,21.20
2023-05-19T16:14:36.336Z,21.12
2023-05-19T16:17:04.705Z,21.14
2023-05-19T16:19:33.961Z,21.02
2023-05-19T16:22:01.864Z,21.05
2023-05-19T16:24:29.662Z,20.96
2023-05-19T16:26:57.444Z,20.93
2023-05-19T16:29:25.285Z,20.97
2023-05-19T16:31:53.197Z,20.95
2023-05-19T16:34:21.073Z,20.97
2023-05-19T16:36:50.393Z,20.89
2023-05-19T16:39:18.182Z,20.95
2023-05-19T16:41:46.074Z,20.89
2023-05-19T16:44:14.661Z,20.85
2023-05-19T16:46:42.680Z,20.76
2023-05-19T16:49:11.146Z,20.72
2023-05-19T16:51:39.186Z,20.71
2023-05-19T16:54:08.521Z,20.63
2023-05-19T16:56:36.554Z,20.57
2023-05-19T16:59:04.721Z,20.51
2023-05-19T17:01:32.572Z,20.48
2023-05-19T17:04:00.435Z,20.42
2023-05-19T17:06:28.335Z,20.40
2023-05-19T17:08:56.111Z,20.33
2023-05-19T17:11:25.299Z,20.30
2023-05-19T17:13:53.139Z,20.22
2023-05-19T17:16:21.377Z,20.22
2023-05-19T17:18:49.232Z,20.15
2023-05-19T17:21:17.638Z,20.13
2023-05-19T17:23:45.614Z,20.08
2023-05-19T17:26:13.477Z,20.14
2023-05-19T17:28:42.632Z,20.08
2023-05-19T17:31:11.868Z,20.04
2023-05-19T17:33:39.922Z,19.94
2023-05-19T17:36:08.668Z,20.00
2023-05-19T17:38:40.145Z,20.02
2023-05-19T17:41:10.707Z,19.89
2023-05-19T17:43:39.030Z,19.88
2023-05-19T17:46:08.284Z,19.86
2023-05-19T17:48:36.712Z,19.87
2023-05-19T17:51:05.863Z,19.83
2023-05-19T17:53:34.705Z,19.74
2023-05-19T17:56:04.211Z,19.72
2023-05-19T17:58:32.570Z,19.64
2023-05-19T18:01:00.748Z,19.62
2023-05-19T18:03:30.488Z,19.54
2023-05-19T18:05:58.544Z,19.48
2023-05-19T18:08:27.106Z,19.43
2023-05-19T18:10:56.332Z,19.38
2023-05-19T18:13:24.089Z,19.38
2023-05-19T18:15:52.644Z,19.32
2023-05-19T18:18:20.550Z,19.27
2023-05-19T18:20:51.966Z,19.22
2023-05-19T18:23:20.528Z,19.14
2023-05-19T18:25:53.341Z,19.15
2023-05-19T18:28:21.433Z,19.10
2023-05-19T18:30:49.250Z,19.05
2023-05-19T18:33:17.053Z,19.03
2023-05-19T18:35:44.845Z,18.93
2023-05-19T18:38:13.954Z,18.88
2023-05-19T18:40:44.106Z,18.82
2023-05-19T18:43:11.941Z,18.76
2023-05-19T18:45:39.765Z,18.71
2023-05-19T18:48:08.728Z,18.69
2023-05-19T18:50:37.115Z,18.58
2023-05-19T18:53:04.922Z,18.59
2023-05-19T18:55:35.442Z,18.57
2023-05-19T18:58:04.334Z,18.47
2023-05-19T19:00:32.835Z,18.40
2023-05-19T19:03:01.768Z,18.35
2023-05-19T19:05:29.889Z,18.27
2023-05-19T19:07:58.020Z,18.19
2023-05-19T19:10:25.830Z,18.11
2023-05-19T19:12:55.072Z,18.05
2023-05-19T19:15:22.938Z,17.95
2023-05-19T19:17:50.827Z,17.89
2023-05-19T19:20:18.917Z,17.83
2023-05-19T19:22:46.667Z,17.78
2023-05-19T19:25:14.705Z,17.73
2023-05-19T19:27:42.560Z,17.66
2023-05-19T19:30:14.106Z,17.59
2023-05-19T19:32:41.935Z,17.50
2023-05-19T19:35:10.560Z,17.45
2023-05-19T19:37:38.385Z,17.40
2023-05-19T19:40:07.591Z,17.35
2023-05-19T19:42:35.518Z,17.32
2023-05-19T19:45:03.369Z,17.27
2023-05-19T19:47:32.725Z,17.20
2023-05-19T19:50:02.522Z,17.14
2023-05-19T19:52:30.664Z,17.08
2023-05-19T19:54:58.479Z,17.02
2023-05-19T19:57:27.021Z,16.93
2023-05-19T19:59:57.473Z,16.83
2023-05-19T20:02:25.327Z,16.76
2023-05-19T20:04:55.051Z,16.68
2023-05-19T20:07:25.086Z,16.60
2023-05-19T20:09:52.889Z,16.49
2023-05-19T20:12:20.703Z,16.42
2023-05-19T20:14:50.602Z,16.37
2023-05-19T20:17:18.433Z,16.30
2023-05-19T20:19:46.193Z,16.27
2023-05-19T20:22:15.473Z,16.23
2023-05-19T20:24:43.260Z,16.17
2023-05-19T20:27:11.149Z,16.12
2023-05-19T20:29:38.929Z,16.06
2023-05-19T20:32:07.367Z,15.98
2023-05-19T20:34:35.195Z,15.99
2023-05-19T20:37:03.055Z,15.97
2023-05-19T20:39:32.227Z,15.92
2023-05-19T20:41:59.814Z,15.82
2023-05-19T20:44:27.656Z,15.81
2023-05-19T20:46:55.701Z,15.72
2023-05-19T20:49:23.594Z,15.67
2023-05-19T20:51:53.905Z,15.58
2023-05-19T20:54:21.852Z,15.51
2023-05-19T20:56:51.873Z,15.43
2023-05-19T20:59:19.658Z,15.35
2023-05-19T21:01:47.557Z,15.28
2023-05-19T21:04:15.500Z,15.20
2023-05-19T21:06:43.345Z,15.13
2023-05-19T21:09:11.410Z,15.06
2023-05-19T21:11:39.224Z,14.99
2023-05-19T21:14:09.299Z,14.90
2023-05-19T21:16:38.830Z,14.85
2023-05-19T21:19:07.375Z,14.80
2023-05-19T21:21:35.383Z,14.75
2023-05-19T21:24:03.168Z,14.70
2023-05-19T21:26:30.980Z,14.67
2023-05-19T21:28:58.796Z,14.61
2023-05-19T21:31:28.069Z,14.59
2023-05-19T21:33:55.930Z,14.56
2023-05-19T21:36:23.984Z,14.51
2023-05-19T21:38:51.860Z,14.47
2023-05-19T21:41:19.679Z,14.43
2023-05-19T21:43:47.392Z,14.39
2023-05-19T21:46:15.330Z,14.37
2023-05-19T21:48:44.511Z,14.34
2023-05-19T21:51:12.090Z,14.26
2023-05-19T21:53:39.890Z,14.26
2023-05-19T21:56:07.967Z,14.20
2023-05-19T21:58:37.724Z,14.19
2023-05-19T22:01:05.792Z,14.18
2023-05-19T22:03:33.624Z,14.17
2023-05-19T22:06:06.533Z,14.18
2023-05-19T22:08:34.324Z,14.20
2023-05-19T22:11:02.125Z,14.18
2023-05-19T22:13:30.298Z,14.16
2023-05-19T22:15:58.362Z,14.18
2023-05-19T22:18:26.288Z,14.17
2023-05-19T22:20:54.060Z,14.18
2023-05-19T22:23:23.253Z,14.17
2023-05-19T22:25:50.982Z,14.13
2023-05-19T22:28:18.772Z,14.13
2023-05-19T22:30:46.644Z,14.10
2023-05-19T22:33:14.733Z,14.08
2023-05-19T22:35:42.937Z,14.01
2023-05-19T22:38:11.778Z,13.96
2023-05-19T22:40:43.883Z,13.92
2023-05-19T22:43:11.663Z,13.90
2023-05-19T22:45:39.416Z,13.85
2023-05-19T22:48:07.637Z,13.80
2023-05-19T22:50:35.465Z,13.77
2023-05-19T22:53:03.241Z,13.75
2023-05-19T22:55:31.141Z,13.73
2023-05-19T22:58:00.363Z,13.69
2023-05-19T23:00:28.201Z,13.67
2023-05-19T23:02:56.122Z,13.60
2023-05-19T23:05:23.976Z,13.54
2023-05-19T23:07:51.804Z,13.48
2023-05-19T23:10:19.618Z,13.47
2023-05-19T23:12:47.449Z,13.45
2023-05-19T23:15:16.603Z,13.46
2023-05-19T23:17:44.560Z,13.46
2023-05-19T23:20:14.179Z,13.45
2023-05-19T23:22:42.152Z,13.43
2023-05-19T23:25:10.494Z,13.41
2023-05-19T23:27:38.374Z,13.40
2023-05-19T23:30:07.465Z,13.37
2023-05-19T23:32:36.725Z,13.39
2023-05-19T23:35:12.394Z,13.38
2023-05-19T23:37:40.143Z,13.38
2023-05-19T23:40:09.183Z,13.39
2023-05-19T23:42:37.653Z,13.37
2023-05-19T23:45:05.951Z,13.37
2023-05-19T23:47:33.733Z,13.36
2023-05-19T23:50:08.178Z,13.32
2023-05-19T23:52:35.960Z,13.32
2023-05-19T23:55:03.927Z,13.29
2023-05-19T23:57:31.740Z,13.27
